Time;durP1;ratioP1;P1;durP2;ratioP2;P2;SDS_P1;SDS_P2;PMS_P1;PMS_P2;Temp;Humidity;BMP_temperature;BMP_pressure;BME280_temperature;BME280_humidity;BME280_pressure;Samples;Min_cycle;Max_cycle;Signal;HPM_P1;HPM_P2
2022/01/24 00:01:12;;;;;;;15.50;14.00;;;;;;;5.18;100.00;102455.41;5096126;28;20234;-79
2022/01/24 00:03:38;;;;;;;16.03;14.37;;;;;;;5.20;100.00;102450.28;5096976;28;20235;-79
2022/01/24 00:06:09;;;;;;;15.00;13.63;;;;;;;5.16;100.00;102466.53;5095747;28;20238;-79
2022/01/24 00:08:35;;;;;;;15.93;14.43;;;;;;;5.13;100.00;102469.91;5096698;28;20204;-79
2022/01/24 00:11:06;;;;;;;15.37;13.83;;;;;;;5.04;100.00;102473.84;5096285;28;20204;-80
2022/01/24 00:16:23;;;;;;;15.27;13.20;;;;;;;4.98;100.00;102484.84;5094571;28;20227;-80
2022/01/24 00:26:58;;;;;;;13.53;12.33;;;;;;;5.41;100.00;102468.28;5096294;28;20227;-79
2022/01/24 00:29:27;;;;;;;13.97;12.63;;;;;;;5.49;100.00;102476.31;5096046;28;20230;-79
2022/01/24 00:31:55;;;;;;;13.17;11.90;;;;;;;5.53;100.00;102478.16;5096630;28;20227;-79
2022/01/24 00:34:24;;;;;;;13.87;12.67;;;;;;;5.56;100.00;102484.34;5096125;28;20205;-79
2022/01/24 00:36:52;;;;;;;12.97;11.63;;;;;;;5.56;100.00;102489.53;5095706;28;20717;-79
2022/01/24 00:39:19;;;;;;;14.17;12.67;;;;;;;5.57;100.00;102493.03;5095298;28;20204;-78
2022/01/24 00:41:53;;;;;;;13.87;12.40;;;;;;;5.56;100.00;102502.47;5096324;28;20200;-80
2022/01/24 00:47:16;;;;;;;15.33;13.83;;;;;;;5.43;100.00;102522.72;5094965;28;20249;-79
2022/01/24 00:52:59;;;;;;;14.83;13.50;;;;;;;5.32;100.00;102533.56;5095938;28;20682;-80
2022/01/24 00:55:25;;;;;;;15.97;14.23;;;;;;;5.07;100.00;102518.81;5095677;28;20231;-80
2022/01/24 00:57:52;;;;;;;18.17;16.23;;;;;;;5.04;100.00;102525.63;5096040;28;20197;-80
2022/01/24 01:00:18;;;;;;;16.80;14.47;;;;;;;5.06;100.00;102511.91;5095578;28;20204;-79
2022/01/24 01:02:46;;;;;;;14.80;13.40;;;;;;;5.18;100.00;102509.75;5096617;28;20204;-79
2022/01/24 01:05:29;;;;;;;14.90;13.53;;;;;;;5.18;100.00;102502.00;5095352;28;20277;-78
2022/01/24 01:08:02;;;;;;;16.63;14.00;;;;;;;5.13;100.00;102498.38;5095752;28;20242;-80
2022/01/24 01:18:42;;;;;;;15.60;14.07;;;;;;;5.30;100.00;102486.03;5099276;28;20222;-79
2022/01/24 01:21:11;;;;;;;15.63;14.27;;;;;;;5.40;100.00;102489.81;5097865;28;20671;-79
2022/01/24 01:23:42;;;;;;;14.13;12.93;;;;;;;5.43;100.00;102487.34;5098764;28;20674;-79
2022/01/24 01:26:17;;;;;;;16.10;14.53;;;;;;;5.34;100.00;102500.84;5098858;28;20224;-79
2022/01/24 01:28:46;;;;;;;14.43;13.23;;;;;;;5.17;100.00;102513.19;5099476;28;20207;-79
2022/01/24 01:31:23;;;;;;;15.17;13.70;;;;;;;5.24;100.00;102516.00;5098389;28;20230;-79
2022/01/24 01:34:00;;;;;;;15.97;14.57;;;;;;;5.19;100.00;102520.97;5098583;28;20203;-80
2022/01/24 01:36:43;;;;;;;16.40;14.70;;;;;;;5.27;100.00;102514.41;5097883;28;20231;-79
2022/01/24 01:53:02;;;;;;;14.00;12.70;;;;;;;5.63;100.00;102526.00;5098473;28;20301;-80
2022/01/24 01:55:38;;;;;;;13.27;11.97;;;;;;;5.69;100.00;102542.66;5098031;28;20228;-80
2022/01/24 01:58:05;;;;;;;13.33;12.23;;;;;;;5.72;100.00;102534.97;5097729;28;20648;-79
2022/01/24 02:00:31;;;;;;;13.63;12.23;;;;;;;5.73;100.00;102554.03;5098507;28;20200;-79
2022/01/24 02:02:58;;;;;;;14.07;12.77;;;;;;;5.75;100.00;102557.56;5097561;28;20823;-79
2022/01/24 02:05:26;;;;;;;14.30;12.90;;;;;;;5.78;100.00;102555.03;5098076;28;20225;-79
2022/01/24 02:07:53;;;;;;;15.20;13.70;;;;;;;5.80;100.00;102550.78;5097839;28;20278;-80
2022/01/24 02:10:22;;;;;;;15.03;13.77;;;;;;;5.82;100.00;102554.31;5097592;28;20249;-79
2022/01/24 02:12:50;;;;;;;13.70;12.30;;;;;;;5.78;100.00;102561.09;5098530;28;20291;-79
2022/01/24 02:15:23;;;;;;;14.50;13.20;;;;;;;5.82;100.00;102558.63;5099130;28;20228;-81
2022/01/24 02:18:00;;;;;;;14.00;12.80;;;;;;;5.85;100.00;102558.75;5077251;28;20274;-81
2022/01/24 02:20:42;;;;;;;13.17;11.97;;;;;;;5.85;100.00;102557.03;5076241;28;20208;-80
2022/01/24 02:23:36;;;;;;;12.67;11.60;;;;;;;5.84;100.00;102564.75;5077238;28;20205;-81
2022/01/24 02:26:05;;;;;;;14.53;12.23;;;;;;;5.82;100.00;102576.78;5078059;28;20231;-81
2022/01/24 02:28:44;;;;;;;13.57;12.37;;;;;;;5.81;100.00;102583.69;5077403;28;20707;-81
2022/01/24 02:31:25;;;;;;;13.67;12.33;;;;;;;5.75;100.00;102589.50;5077743;28;20208;-81
2022/01/24 02:33:52;;;;;;;15.10;12.87;;;;;;;5.40;100.00;102582.19;5078039;28;20196;-80
2022/01/24 02:36:20;;;;;;;14.87;13.47;;;;;;;5.25;100.00;102569.53;5088201;28;20236;-81
2022/01/24 02:39:01;;;;;;;16.13;14.67;;;;;;;5.21;100.00;102565.94;5097752;28;20302;-82
2022/01/24 02:49:39;;;;;;;14.30;13.00;;;;;;;5.52;100.00;102560.19;5097155;28;20892;-81
2022/01/24 02:52:09;;;;;;;13.07;11.90;;;;;;;5.61;100.00;102558.75;5097607;28;20254;-81
2022/01/24 02:54:38;;;;;;;13.43;11.87;;;;;;;5.65;100.00;102561.53;5097747;28;20597;-82
2022/01/24 02:57:07;;;;;;;14.97;12.43;;;;;;;5.67;100.00;102558.97;5096648;28;20293;-80
2022/01/24 02:59:34;;;;;;;14.50;13.30;;;;;;;5.65;100.00;102564.13;5097727;28;20203;-82
2022/01/24 03:02:01;;;;;;;14.73;13.27;;;;;;;5.50;100.00;102560.97;5096910;28;20743;-82
2022/01/24 03:04:27;;;;;;;16.60;14.20;;;;;;;5.20;100.00;102561.59;5097000;28;20205;-82
2022/01/24 03:06:54;;;;;;;15.50;13.93;;;;;;;5.05;100.00;102553.25;5097087;28;20694;-83
2022/01/24 03:09:22;;;;;;;15.50;14.00;;;;;;;5.07;100.00;102528.31;5097081;28;20212;-82
2022/01/24 03:14:32;;;;;;;16.07;14.67;;;;;;;5.26;100.00;102497.09;5093731;28;20239;-81
2022/01/24 03:16:59;;;;;;;17.27;15.47;;;;;;;5.20;100.00;102496.00;5097422;28;20228;-80
2022/01/24 03:19:26;;;;;;;16.13;14.53;;;;;;;5.22;100.00;102490.03;5096930;28;20671;-80
2022/01/24 03:21:53;;;;;;;13.77;12.57;;;;;;;5.36;100.00;102491.41;5096648;28;20708;-81
2022/01/24 03:24:20;;;;;;;14.87;13.47;;;;;;;5.46;100.00;102492.63;5096851;28;20215;-81
2022/01/24 03:26:47;;;;;;;15.17;13.77;;;;;;;5.49;100.00;102505.69;5099219;28;20220;-81
2022/01/24 03:29:15;;;;;;;14.57;13.20;;;;;;;5.52;100.00;102512.69;5104500;28;20311;-81
2022/01/24 03:31:42;;;;;;;14.17;12.93;;;;;;;5.58;100.00;102510.31;5105628;28;20226;-81
2022/01/24 03:34:09;;;;;;;14.53;13.20;;;;;;;5.54;100.00;102531.75;5105663;28;20208;-81
2022/01/24 03:36:35;;;;;;;13.90;12.70;;;;;;;5.57;100.00;102534.47;5099765;28;20232;-80
2022/01/24 03:39:02;;;;;;;14.50;13.27;;;;;;;5.66;100.00;102536.47;5100103;28;20257;-80
2022/01/24 03:41:29;;;;;;;17.03;13.03;;;;;;;5.65;100.00;102553.75;5100278;28;20215;-80
2022/01/24 03:44:01;;;;;;;13.50;12.40;;;;;;;5.66;100.00;102559.81;5100623;28;20893;-79
2022/01/24 03:46:36;;;;;;;14.20;12.10;;;;;;;5.63;100.00;102564.84;5099543;28;20710;-79
2022/01/24 03:49:19;;;;;;;14.27;12.40;;;;;;;5.70;100.00;102566.84;5099798;28;20210;-80
2022/01/24 03:51:46;;;;;;;14.97;13.63;;;;;;;5.63;100.00;102573.53;5100640;28;20200;-80
2022/01/24 03:54:12;;;;;;;14.53;13.13;;;;;;;5.66;100.00;102572.75;5100350;28;20200;-80
2022/01/24 03:56:38;;;;;;;15.10;13.27;;;;;;;5.68;100.00;102569.38;5100161;28;20740;-80
2022/01/24 03:59:05;;;;;;;13.83;12.53;;;;;;;5.69;100.00;102565.97;5099852;28;20204;-80
2022/01/24 04:01:32;;;;;;;13.57;12.37;;;;;;;5.65;100.00;102564.13;5100090;28;20318;-80
2022/01/24 04:03:59;;;;;;;14.80;13.07;;;;;;;5.57;100.00;102568.13;5100401;28;20858;-81
2022/01/24 04:06:25;;;;;;;14.30;12.07;;;;;;;5.56;100.00;102558.59;5099482;28;20232;-80
2022/01/24 04:08:53;;;;;;;15.33;13.60;;;;;;;5.58;100.00;102551.75;5099394;28;20220;-80
2022/01/24 04:11:20;;;;;;;14.73;13.33;;;;;;;5.56;100.00;102549.09;5098926;28;20230;-80
2022/01/24 04:13:56;;;;;;;13.77;12.50;;;;;;;5.62;100.00;102544.97;5099872;28;20204;-80
2022/01/24 04:16:29;;;;;;;14.30;13.07;;;;;;;5.66;100.00;102539.94;5100207;28;20219;-80
2022/01/24 04:19:11;;;;;;;14.67;13.27;;;;;;;5.66;100.00;102536.47;5099624;28;20224;-80
2022/01/24 04:21:37;;;;;;;14.33;13.07;;;;;;;5.68;100.00;102537.41;5099497;28;20227;-79
2022/01/24 04:24:08;;;;;;;14.97;13.43;;;;;;;5.66;100.00;102550.31;5100495;28;20204;-80
2022/01/24 04:26:35;;;;;;;15.97;14.37;;;;;;;5.68;100.00;102543.47;5099331;28;20280;-80
2022/01/24 04:29:03;;;;;;;15.13;13.73;;;;;;;5.71;100.00;102555.69;5099000;28;20573;-80
2022/01/24 04:31:31;;;;;;;17.00;15.40;;;;;;;5.64;100.00;102556.28;5098964;28;20200;-79
2022/01/24 04:33:59;;;;;;;17.13;15.57;;;;;;;5.52;100.00;102555.00;5099679;28;20200;-80
2022/01/24 04:36:26;;;;;;;16.33;14.87;;;;;;;5.53;100.00;102548.09;5098834;28;20239;-81
2022/01/24 04:38:52;;;;;;;16.57;14.97;;;;;;;5.62;100.00;102544.97;5099245;28;20205;-80
2022/01/24 04:41:23;;;;;;;14.90;13.53;;;;;;;5.69;100.00;102550.44;5099684;28;20613;-80
2022/01/24 04:43:55;;;;;;;14.47;13.07;;;;;;;5.70;100.00;102562.53;5099876;28;20201;-80
2022/01/24 04:52:08;;;;;;;15.43;13.03;;;;;;;5.64;100.00;102564.06;5103469;28;20684;-79
2022/01/24 04:54:40;;;;;;;14.37;13.07;;;;;;;5.70;100.00;102561.69;5103271;28;20570;-81
2022/01/24 04:57:08;;;;;;;13.80;12.60;;;;;;;5.69;100.00;102560.81;5102828;28;20221;-80
2022/01/24 04:59:35;;;;;;;14.63;13.23;;;;;;;5.71;100.00;102573.81;5102427;28;20231;-80
2022/01/24 05:02:02;;;;;;;13.47;12.27;;;;;;;5.65;100.00;102568.38;5102857;28;20701;-80
2022/01/24 05:04:30;;;;;;;13.87;12.60;;;;;;;5.63;100.00;102560.59;5102957;28;20208;-80
2022/01/24 05:06:56;;;;;;;15.53;12.40;;;;;;;5.63;100.00;102564.84;5102393;28;20224;-80
2022/01/24 05:09:23;;;;;;;14.77;13.47;;;;;;;5.65;100.00;102563.22;5102480;28;20224;-80
2022/01/24 05:11:54;;;;;;;14.33;13.03;;;;;;;5.65;100.00;102550.25;5103109;28;20200;-80
2022/01/24 05:25:19;;;;;;;13.17;12.03;;;;;;;5.70;100.00;102548.72;5102090;28;20729;-79
2022/01/24 05:27:46;;;;;;;17.30;13.17;;;;;;;5.69;100.00;102553.03;5101645;28;20224;-79
2022/01/24 05:30:14;;;;;;;13.43;12.07;;;;;;;5.67;100.00;102549.50;5101930;28;20252;-80
2022/01/24 05:32:41;;;;;;;13.57;12.17;;;;;;;5.67;100.00;102557.28;5101642;28;20253;-79
2022/01/24 05:35:09;;;;;;;14.53;13.13;;;;;;;5.58;100.00;102568.16;5101817;28;20230;-80
2022/01/24 05:37:36;;;;;;;14.70;13.37;;;;;;;5.56;100.00;102562.06;5109020;22;20218;-78
2022/01/24 05:40:04;;;;;;;14.93;13.53;;;;;;;5.53;100.00;102561.97;5062348;28;20210;-79
2022/01/24 05:42:30;;;;;;;13.33;12.13;;;;;;;5.51;100.00;102563.63;5061296;28;20231;-79
2022/01/24 05:44:58;;;;;;;13.37;12.07;;;;;;;5.51;100.00;102553.25;5061071;28;20261;-78
2022/01/24 05:47:24;;;;;;;16.80;13.60;;;;;;;5.56;100.00;102559.47;5055579;28;20217;-79
2022/01/24 05:49:51;;;;;;;13.47;12.27;;;;;;;5.58;100.00;102556.94;5054923;28;20255;-79
2022/01/24 05:52:18;;;;;;;13.63;12.40;;;;;;;5.54;100.00;102550.75;5054731;28;20210;-79
2022/01/24 05:54:45;;;;;;;14.47;13.07;;;;;;;5.63;100.00;102560.59;5054267;28;20206;-79
2022/01/24 05:57:11;;;;;;;13.87;12.57;;;;;;;5.54;100.00;102555.06;5054569;28;20213;-78
2022/01/24 05:59:38;;;;;;;14.83;13.43;;;;;;;5.61;100.00;102566.50;5053722;28;20890;-78
2022/01/24 06:02:05;;;;;;;14.57;13.23;;;;;;;5.61;100.00;102556.16;5054393;28;20201;-78
2022/01/24 06:04:32;;;;;;;13.90;12.60;;;;;;;5.53;100.00;102553.28;5054648;28;20205;-79
2022/01/24 06:06:58;;;;;;;13.13;11.90;;;;;;;5.47;100.00;102555.66;5054943;28;20355;-78
2022/01/24 06:09:26;;;;;;;14.97;13.67;;;;;;;5.54;100.00;102544.69;5058800;28;20226;-78
2022/01/24 06:11:52;;;;;;;14.80;13.30;;;;;;;5.56;100.00;102543.91;5054077;28;20201;-78
2022/01/24 06:14:19;;;;;;;16.63;13.07;;;;;;;5.62;100.00;102550.16;5054941;28;20209;-77
2022/01/24 06:16:45;;;;;;;14.83;13.43;;;;;;;5.61;100.00;102562.25;5054235;28;20680;-78
2022/01/24 06:19:12;;;;;;;16.40;13.20;;;;;;;5.63;100.00;102558.00;5054730;28;20221;-79
2022/01/24 06:21:39;;;;;;;16.23;13.57;;;;;;;5.68;100.00;102558.16;5053749;28;20699;-75
2022/01/24 06:24:06;;;;;;;14.47;13.13;;;;;;;5.68;100.00;102563.34;5053983;28;20271;-78
2022/01/24 06:26:34;;;;;;;16.00;14.50;;;;;;;5.64;100.00;102569.22;5053819;28;20214;-79
2022/01/24 06:29:00;;;;;;;13.77;12.50;;;;;;;5.66;100.00;102567.56;5053764;28;20235;-78
2022/01/24 06:31:26;;;;;;;14.57;13.27;;;;;;;5.64;100.00;102574.41;5053763;28;20212;-79
2022/01/24 06:33:53;;;;;;;13.67;12.47;;;;;;;5.62;100.00;102570.88;5053625;28;20206;-78
2022/01/24 06:36:19;;;;;;;14.37;13.10;;;;;;;5.62;100.00;102569.16;5053981;28;20209;-77
2022/01/24 06:38:46;;;;;;;14.47;13.10;;;;;;;5.63;100.00;102572.63;5057885;28;20234;-78
2022/01/24 06:41:12;;;;;;;14.50;13.20;;;;;;;5.63;100.00;102572.63;5054111;28;20205;-79
2022/01/24 06:43:40;;;;;;;15.13;13.73;;;;;;;5.65;100.00;102568.38;5054991;28;20679;-79
2022/01/24 06:46:06;;;;;;;14.47;13.17;;;;;;;5.64;100.00;102570.09;5053406;28;20210;-77
2022/01/24 06:48:33;;;;;;;13.37;12.13;;;;;;;5.67;100.00;102566.72;5053611;28;20214;-78
2022/01/24 06:50:59;;;;;;;14.10;12.90;;;;;;;5.63;100.00;102570.03;5054880;28;20198;-78
2022/01/24 06:53:25;;;;;;;15.23;13.03;;;;;;;5.61;100.00;102577.78;5054217;28;20202;-77
2022/01/24 06:55:52;;;;;;;18.87;14.87;;;;;;;5.65;100.00;102577.06;5054334;28;20227;-78
2022/01/24 06:58:19;;;;;;;15.20;13.70;;;;;;;5.63;100.00;102589.09;5053830;28;20776;-78
2022/01/24 07:00:46;;;;;;;18.20;14.50;;;;;;;5.61;100.00;102574.28;5053437;28;20292;-78
2022/01/24 07:03:13;;;;;;;15.40;14.00;;;;;;;5.62;100.00;102579.53;5053732;28;20201;-78
2022/01/24 07:05:39;;;;;;;16.00;14.40;;;;;;;5.64;100.00;102569.22;5052113;28;20258;-77
2022/01/24 07:08:05;;;;;;;16.43;14.77;;;;;;;5.67;100.00;102567.63;5051723;28;20263;-77
2022/01/24 07:10:33;;;;;;;16.27;14.77;;;;;;;5.67;100.00;102574.50;5052093;28;20197;-78
2022/01/24 07:12:59;;;;;;;18.17;16.47;;;;;;;5.66;99.91;102577.94;5053112;28;20197;-77
2022/01/24 07:15:32;;;;;;;18.20;16.30;;;;;;;5.65;100.00;102576.16;5052715;28;20197;-78
2022/01/24 07:18:56;;;;;;;17.37;15.67;;;;;;;5.63;100.00;102572.63;5053031;28;20260;-78
2022/01/24 07:21:02;;;;;;;17.60;16.00;;;;;;;5.65;100.00;102576.16;5051612;28;20204;-78
2022/01/24 07:23:29;;;;;;;17.40;15.70;;;;;;;5.64;100.00;102574.41;5049812;28;20201;-76
2022/01/24 07:25:55;;;;;;;18.13;15.47;;;;;;;5.64;100.00;102571.81;5051882;28;20197;-77
2022/01/24 07:28:22;;;;;;;17.97;16.27;;;;;;;5.63;100.00;102570.94;5052214;28;20217;-77
2022/01/24 07:30:48;;;;;;;17.30;15.53;;;;;;;5.69;100.00;102578.03;5051801;28;20251;-77
2022/01/24 07:33:16;;;;;;;20.70;15.83;;;;;;;5.65;100.00;102578.75;5053050;28;20205;-78
2022/01/24 07:35:45;;;;;;;18.93;16.03;;;;;;;5.61;100.00;102570.00;5050221;28;20249;-77
2022/01/24 07:38:11;;;;;;;16.17;14.57;;;;;;;5.68;100.00;102566.78;5054307;28;20233;-77
2022/01/24 07:40:41;;;;;;;17.13;15.43;;;;;;;5.70;100.00;102572.03;5052656;28;20243;-77
2022/01/24 07:43:12;;;;;;;17.10;15.50;;;;;;;5.68;100.00;102565.91;5049263;28;20228;-78
2022/01/24 07:45:41;;;;;;;17.17;15.47;;;;;;;5.68;100.00;102564.19;5052597;28;20223;-78
2022/01/24 07:48:07;;;;;;;17.87;16.17;;;;;;;5.69;100.00;102563.38;5050442;28;20278;-78
2022/01/24 07:50:37;;;;;;;17.27;15.57;;;;;;;5.71;100.00;102560.88;5051263;28;20202;-77
2022/01/24 07:53:03;;;;;;;18.60;16.60;;;;;;;5.72;100.00;102563.47;5050818;28;20737;-77
2022/01/24 07:55:31;;;;;;;17.73;15.87;;;;;;;5.73;100.00;102565.25;5051527;28;20686;-77
2022/01/24 07:57:57;;;;;;;18.23;15.90;;;;;;;5.74;100.00;102564.41;5051333;28;20711;-77
2022/01/24 08:00:24;;;;;;;17.60;16.00;;;;;;;5.70;100.00;102559.97;5050932;28;20254;-77
2022/01/24 08:02:50;;;;;;;18.03;16.33;;;;;;;5.75;100.00;102561.00;5052173;28;20605;-78
2022/01/24 08:05:16;;;;;;;16.80;15.00;;;;;;;5.76;100.00;102567.06;5052060;28;20197;-77
2022/01/24 08:07:44;;;;;;;18.43;16.73;;;;;;;5.79;100.00;102569.78;5053496;28;20435;-78
2022/01/24 08:10:11;;;;;;;18.00;16.10;;;;;;;5.77;100.00;102574.91;5050699;28;20440;-77
2022/01/24 08:12:39;;;;;;;20.50;18.60;;;;;;;5.78;100.00;102566.28;5050549;28;20438;-77
2022/01/24 08:15:08;;;;;;;17.93;16.23;;;;;;;5.83;100.00;102568.16;5050837;28;20675;-77
2022/01/24 08:17:35;;;;;;;18.33;16.40;;;;;;;5.84;100.00;102572.53;5051938;28;20240;-78
2022/01/24 08:20:01;;;;;;;17.87;15.97;;;;;;;5.80;100.00;102568.94;5053762;28;20231;-78
2022/01/24 08:22:27;;;;;;;18.10;16.20;;;;;;;5.82;100.00;102566.41;5055621;28;20299;-77
2022/01/24 08:24:55;;;;;;;18.73;15.90;;;;;;;5.84;100.00;102570.81;5055548;28;20608;-78
2022/01/24 08:27:24;;;;;;;18.60;15.80;;;;;;;5.86;100.00;102576.06;5055889;28;20197;-77
2022/01/24 08:29:51;;;;;;;16.77;15.23;;;;;;;5.84;100.00;102576.00;5055745;28;20194;-78
2022/01/24 08:32:18;;;;;;;17.30;15.73;;;;;;;5.84;100.00;102580.31;5055758;28;20259;-77
2022/01/24 08:34:45;;;;;;;16.57;14.67;;;;;;;5.91;100.00;102584.88;5054860;28;20742;-78
2022/01/24 08:37:12;;;;;;;16.17;14.73;;;;;;;5.94;99.99;102580.66;5055218;28;20208;-78
2022/01/24 08:39:39;;;;;;;15.23;13.83;;;;;;;5.89;100.00;102578.75;5056793;28;20229;-76
2022/01/24 08:42:15;;;;;;;17.93;16.10;;;;;;;5.91;99.93;102564.16;5054610;28;20255;-77
2022/01/24 08:47:27;;;;;;;14.77;13.37;;;;;;;5.98;100.00;102566.13;5054451;28;20201;-76
2022/01/24 08:49:54;;;;;;;14.37;13.07;;;;;;;5.99;100.00;102567.91;5054470;28;20252;-78
2022/01/24 08:52:21;;;;;;;14.30;13.03;;;;;;;6.00;100.00;102564.47;5055164;28;20723;-78
2022/01/24 08:54:48;;;;;;;15.17;13.77;;;;;;;6.03;100.00;102567.19;5052621;28;20199;-78
2022/01/24 08:57:21;;;;;;;14.40;13.10;;;;;;;6.03;100.00;102571.50;5054830;28;20641;-79
2022/01/24 08:59:47;;;;;;;13.13;12.00;;;;;;;6.03;100.00;102559.41;5052526;28;20257;-78
2022/01/24 09:02:14;;;;;;;13.77;12.47;;;;;;;5.99;100.00;102554.06;5055375;28;20206;-79
2022/01/24 09:04:40;;;;;;;13.03;11.83;;;;;;;6.06;100.00;102567.28;5055758;28;20209;-79
2022/01/24 09:07:06;;;;;;;13.60;12.40;;;;;;;6.07;100.00;102568.19;5055738;28;20291;-78
2022/01/24 09:09:35;;;;;;;12.70;11.60;;;;;;;6.07;100.00;102573.38;5059439;28;20640;-78
2022/01/24 09:12:01;;;;;;;13.60;12.30;;;;;;;6.07;100.00;102579.41;5056054;28;20210;-79
2022/01/24 09:14:29;;;;;;;12.67;11.43;;;;;;;6.09;99.76;102580.34;5055036;28;20271;-78
2022/01/24 09:16:55;;;;;;;12.50;11.40;;;;;;;6.14;100.00;102583.09;5055595;28;20213;-78
2022/01/24 09:19:22;;;;;;;11.60;10.50;;;;;;;6.19;100.00;102575.50;5055014;28;20290;-78
2022/01/24 09:21:50;;;;;;;10.57;9.67;;;;;;;6.24;99.22;102581.69;5055652;28;20202;-78
2022/01/24 09:24:17;;;;;;;12.20;11.10;;;;;;;6.22;98.94;102596.31;5055459;28;20210;-78
2022/01/24 09:26:43;;;;;;;10.80;9.90;;;;;;;6.24;99.16;102607.63;5055551;28;20205;-79
2022/01/24 09:29:10;;;;;;;10.97;9.97;;;;;;;6.26;99.53;102604.25;5056610;28;20242;-78
2022/01/24 09:31:37;;;;;;;10.33;9.07;;;;;;;6.25;98.72;102612.00;5056667;28;20228;-79
2022/01/24 09:34:04;;;;;;;10.50;9.60;;;;;;;6.30;98.92;102610.41;5055988;28;20611;-79
2022/01/24 09:36:30;;;;;;;10.40;9.50;;;;;;;6.33;99.69;102602.75;5055818;28;20260;-78
2022/01/24 09:38:57;;;;;;;13.87;11.33;;;;;;;6.33;98.90;102600.16;5061445;28;20301;-79
2022/01/24 09:41:24;;;;;;;10.87;9.87;;;;;;;6.35;99.76;102598.50;5055984;28;20307;-78
2022/01/24 09:43:51;;;;;;;12.03;10.13;;;;;;;6.38;99.43;102601.19;5056221;28;20272;-79
2022/01/24 09:46:17;;;;;;;11.03;10.03;;;;;;;6.41;99.28;102597.84;5056111;28;20207;-79
2022/01/24 09:48:45;;;;;;;10.53;9.67;;;;;;;6.40;99.05;102611.63;5056568;28;20231;-79
2022/01/24 09:51:12;;;;;;;10.87;9.87;;;;;;;6.41;98.35;102616.00;5056936;28;20204;-79
2022/01/24 09:53:39;;;;;;;10.40;9.43;;;;;;;6.48;98.00;102639.59;5055441;28;20215;-78
2022/01/24 09:56:05;;;;;;;12.00;10.90;;;;;;;6.45;98.02;102654.16;5055098;28;20197;-79
2022/01/24 09:58:33;;;;;;;11.67;10.67;;;;;;;6.43;97.97;102650.66;5052452;28;20215;-78
2022/01/24 10:01:00;;;;;;;11.57;10.57;;;;;;;6.41;98.53;102642.81;5055379;28;20259;-77
2022/01/24 10:03:27;;;;;;;11.10;10.00;;;;;;;6.44;98.79;102632.53;5055570;28;20608;-78
2022/01/24 10:05:57;;;;;;;10.97;9.97;;;;;;;6.48;98.39;102626.63;5055775;28;20247;-78
2022/01/24 10:08:25;;;;;;;10.50;9.60;;;;;;;6.50;97.85;102629.25;5059557;28;20250;-78
2022/01/24 10:10:53;;;;;;;11.13;10.03;;;;;;;6.47;97.99;102635.22;5054939;28;20190;-79
2022/01/24 10:16:25;;;;;;;9.17;8.37;;;;;;;6.52;97.64;102644.06;5055238;28;20687;-80
2022/01/24 10:19:02;;;;;;;9.33;8.57;;;;;;;6.49;97.42;102636.16;5054304;28;20258;-79
2022/01/24 10:21:30;;;;;;;8.30;7.60;;;;;;;6.53;97.92;102652.72;5055099;28;20206;-79
2022/01/24 10:23:56;;;;;;;8.60;7.90;;;;;;;6.51;97.03;102655.25;5054076;28;20216;-79
2022/01/24 10:26:25;;;;;;;9.13;8.30;;;;;;;6.49;96.67;102656.91;5054743;28;20206;-79
2022/01/24 10:28:52;;;;;;;8.60;8.00;;;;;;;6.48;97.36;102656.84;5054694;28;20320;-79
2022/01/24 10:31:23;;;;;;;8.30;7.60;;;;;;;6.27;95.07;102730.50;5053883;28;20264;-77
2022/01/24 10:33:55;;;;;;;7.70;7.10;;;;;;;6.14;94.14;102749.94;5054271;28;20277;-78
2022/01/24 10:36:45;;;;;;;7.97;7.37;;;;;;;6.13;94.62;102742.09;5053399;28;20677;-78
2022/01/24 10:39:17;;;;;;;7.07;6.47;;;;;;;6.23;94.82;102730.38;5052906;28;20230;-79
2022/01/24 10:42:09;;;;;;;8.50;7.80;;;;;;;6.29;94.95;102713.28;5053606;28;20194;-79
2022/01/24 10:44:37;;;;;;;8.97;8.20;;;;;;;6.42;95.68;102709.44;5054343;28;20212;-79
2022/01/24 10:47:13;;;;;;;9.20;8.37;;;;;;;6.47;95.53;102705.28;5054483;28;20208;-79
2022/01/24 10:49:39;;;;;;;7.57;6.97;;;;;;;6.52;95.75;102698.53;5054091;28;20214;-79
2022/01/24 10:52:12;;;;;;;8.13;7.43;;;;;;;6.56;95.04;102704.69;5053765;28;20205;-78
2022/01/24 10:54:38;;;;;;;7.93;7.13;;;;;;;6.53;95.18;102707.19;5064827;28;20206;-80
2022/01/24 10:57:05;;;;;;;7.10;6.50;;;;;;;6.54;95.60;102709.84;5064879;28;20235;-79
2022/01/24 10:59:35;;;;;;;6.40;5.90;;;;;;;6.45;93.83;102734.59;5071225;28;20236;-80
2022/01/24 11:02:03;;;;;;;6.33;5.73;;;;;;;6.51;94.71;102742.59;5057991;28;20206;-79
2022/01/24 11:04:30;;;;;;;7.17;6.47;;;;;;;6.54;93.95;102721.91;5054994;28;20254;-80
2022/01/24 11:06:58;;;;;;;5.93;5.37;;;;;;;6.62;93.74;102727.38;5055563;28;20680;-79
2022/01/24 11:09:27;;;;;;;5.43;5.03;;;;;;;6.61;94.34;102734.28;5059441;28;20223;-79
2022/01/24 11:11:58;;;;;;;4.97;4.57;;;;;;;6.59;93.36;102753.25;5054809;28;20201;-79
2022/01/24 11:14:26;;;;;;;4.97;4.57;;;;;;;6.59;93.46;102753.25;5054444;28;20621;-79
2022/01/24 11:16:54;;;;;;;4.67;4.27;;;;;;;6.57;93.32;102745.41;5055338;28;20216;-79
2022/01/24 11:19:28;;;;;;;4.60;4.30;;;;;;;6.60;93.68;102748.13;5053415;28;20736;-78
2022/01/24 11:21:55;;;;;;;5.10;4.70;;;;;;;6.59;93.62;102738.53;5053837;28;20192;-79
2022/01/24 11:24:28;;;;;;;4.20;3.90;;;;;;;6.60;93.68;102736.81;5054176;28;20201;-79
2022/01/24 11:26:56;;;;;;;4.73;4.33;;;;;;;6.62;93.95;102733.47;5054557;28;20209;-79
2022/01/24 11:29:24;;;;;;;4.33;3.97;;;;;;;6.62;92.94;102741.25;5053777;28;20226;-79
2022/01/24 11:32:03;;;;;;;4.60;4.20;;;;;;;6.64;93.32;102739.59;5055237;28;20683;-79
2022/01/24 11:34:35;;;;;;;4.37;3.97;;;;;;;6.62;93.50;102738.66;5055302;28;20569;-80
2022/01/24 11:37:02;;;;;;;3.73;3.43;;;;;;;6.67;92.79;102741.41;5054891;28;20206;-79
2022/01/24 11:39:28;;;;;;;3.73;3.43;;;;;;;6.68;92.10;102743.16;5058190;28;20945;-80
2022/01/24 11:41:56;;;;;;;2.80;2.60;;;;;;;6.62;91.62;102763.72;5053334;28;20684;-78
2022/01/24 11:44:25;;;;;;;3.23;3.03;;;;;;;6.61;90.51;102795.69;5086389;22;20232;-81
2022/01/24 11:46:55;;;;;;;2.60;2.50;;;;;;;6.27;88.53;102815.22;5118061;28;20208;-80
2022/01/24 11:49:28;;;;;;;2.43;2.33;;;;;;;5.99;88.23;102857.38;5117941;28;20221;-82
2022/01/24 11:52:05;;;;;;;3.13;2.93;;;;;;;5.95;88.87;102838.22;5119082;28;20697;-80
2022/01/24 11:54:45;;;;;;;2.33;2.13;;;;;;;6.07;89.30;102823.13;5118522;28;20229;-80
2022/01/24 11:57:23;;;;;;;2.60;2.40;;;;;;;6.02;88.00;102863.53;5120076;28;20553;-83
2022/01/24 11:59:51;;;;;;;4.40;2.80;;;;;;;6.22;89.68;102835.78;5117980;28;20226;-80
2022/01/24 12:02:23;;;;;;;3.13;2.83;;;;;;;6.31;90.85;102809.31;5117651;28;20248;-80
2022/01/24 12:04:58;;;;;;;2.70;2.50;;;;;;;6.35;90.53;102793.91;5116037;28;20228;-80
2022/01/24 12:07:27;;;;;;;2.83;2.63;;;;;;;6.17;88.70;102834.75;5117193;28;20276;-81
2022/01/24 12:09:55;;;;;;;2.33;2.13;;;;;;;6.10;89.36;102840.50;5116040;28;20188;-81
2022/01/24 12:12:43;;;;;;;2.83;2.63;;;;;;;6.21;89.43;102834.03;5116279;28;20624;-79
2022/01/24 12:15:12;;;;;;;4.00;3.53;;;;;;;6.28;89.73;102804.91;5116879;28;20227;-79
2022/01/24 12:17:50;;;;;;;4.70;3.80;;;;;;;6.27;90.01;102799.66;5119464;28;20199;-81
2022/01/24 12:20:47;;;;;;;3.60;3.40;;;;;;;6.31;90.17;102793.75;5116827;28;20877;-80
2022/01/24 12:23:34;;;;;;;3.33;3.03;;;;;;;6.33;91.16;102782.59;5115102;28;20248;-79
2022/01/24 12:26:02;;;;;;;2.50;2.30;;;;;;;6.38;91.25;102763.72;5118076;28;20250;-79
2022/01/24 12:28:33;;;;;;;2.67;2.47;;;;;;;6.43;90.75;102772.56;5120320;28;20221;-80
2022/01/24 12:31:00;;;;;;;2.37;2.17;;;;;;;6.43;91.98;102760.47;5115891;28;20252;-79
2022/01/24 12:33:32;;;;;;;5.53;2.50;;;;;;;6.46;91.79;102742.44;5114834;28;20207;-80
2022/01/24 12:35:58;;;;;;;2.80;2.60;;;;;;;6.44;91.32;102761.34;5112825;28;20193;-79